createdAt,value
2022-11-21T00:00:20.545Z,3.24
2022-11-21T00:02:48.871Z,3.19
2022-11-21T00:05:17.550Z,3.21
2022-11-21T00:07:46.817Z,3.25
2022-11-21T00:10:15.234Z,3.27
2022-11-21T00:12:44.792Z,2.41
2022-11-21T00:15:13.144Z,3.07
2022-11-21T00:17:41.414Z,3.04
2022-11-21T00:20:10.512Z,3.05
2022-11-21T00:22:38.809Z,3.14
2022-11-21T00:25:08.799Z,3.09
2022-11-21T00:27:37.190Z,2.34
2022-11-21T00:30:09.981Z,3.13
2022-11-21T00:32:38.234Z,3.18
2022-11-21T00:35:07.638Z,3.21
2022-11-21T00:37:36.358Z,3.22
2022-11-21T00:40:05.928Z,3.25
2022-11-21T00:42:34.349Z,3.30
2022-11-21T00:45:02.706Z,3.30
2022-11-21T00:47:32.364Z,3.31
2022-11-21T00:50:00.633Z,3.27
2022-11-21T00:52:28.856Z,3.28
2022-11-21T00:54:57.190Z,3.33
2022-11-21T00:57:25.459Z,3.35
2022-11-21T00:59:53.717Z,3.39
2022-11-21T01:02:24.667Z,3.23
2022-11-21T01:04:54.322Z,3.05
2022-11-21T01:07:22.602Z,3.42
2022-11-21T01:09:50.888Z,3.27
2022-11-21T01:12:19.170Z,3.34
2022-11-21T01:14:47.480Z,3.27
2022-11-21T01:17:15.759Z,3.17
2022-11-21T01:19:44.112Z,2.99
2022-11-21T01:22:13.806Z,3.02
2022-11-21T01:24:42.130Z,2.98
2022-11-21T01:27:10.412Z,2.94
2022-11-21T01:29:38.651Z,2.94
2022-11-21T01:32:07.278Z,2.96
2022-11-21T01:34:35.559Z,3.11
2022-11-21T01:37:03.840Z,3.03
2022-11-21T01:39:34.049Z,2.97
2022-11-21T01:42:02.369Z,3.15
2022-11-21T01:44:50.956Z,3.17
2022-11-21T01:47:20.720Z,2.97
2022-11-21T01:49:49.642Z,3.03
2022-11-21T01:52:25.239Z,3.02
2022-11-21T01:54:57.640Z,3.12
2022-11-21T01:57:29.478Z,3.05
2022-11-21T02:00:01.790Z,3.09
2022-11-21T02:02:33.573Z,3.27
2022-11-21T02:05:02.899Z,3.21
2022-11-21T02:07:35.957Z,3.16
2022-11-21T02:10:07.624Z,3.38
2022-11-21T02:12:42.577Z,3.21
2022-11-21T02:15:14.127Z,3.18
2022-11-21T02:17:42.899Z,3.33
2022-11-21T02:20:14.468Z,3.26
2022-11-21T02:22:53.545Z,3.33
2022-11-21T02:25:25.243Z,2.60
2022-11-21T02:27:59.131Z,3.26
2022-11-21T02:30:28.732Z,3.25
2022-11-21T02:32:57.659Z,3.24
2022-11-21T02:35:26.184Z,3.23
2022-11-21T02:38:00.474Z,3.39
2022-11-21T02:40:34.907Z,3.19
2022-11-21T02:43:10.856Z,3.22
2022-11-21T02:45:42.594Z,3.12
2022-11-21T02:48:11.782Z,3.61
2022-11-21T02:50:41.418Z,3.29
2022-11-21T02:53:13.183Z,3.24
2022-11-21T02:55:43.619Z,3.37
2022-11-21T02:58:12.498Z,3.34
2022-11-21T03:00:42.970Z,3.34
2022-11-21T03:03:11.425Z,3.30
2022-11-21T03:05:44.048Z,3.27
2022-11-21T03:08:12.290Z,3.29
2022-11-21T03:10:41.877Z,3.28
2022-11-21T03:13:10.143Z,3.19
2022-11-21T03:15:38.514Z,3.02
2022-11-21T03:18:06.846Z,3.21
2022-11-21T03:20:35.909Z,3.13
2022-11-21T03:23:04.907Z,3.03
2022-11-21T03:25:36.408Z,2.96
2022-11-21T03:28:06.648Z,2.95
2022-11-21T03:30:34.895Z,2.88
2022-11-21T03:33:03.145Z,2.78
2022-11-21T03:35:31.440Z,3.47
2022-11-21T03:37:59.680Z,2.59
2022-11-21T03:40:28.037Z,2.65
2022-11-21T03:42:56.657Z,2.64
2022-11-21T03:45:26.270Z,1.53
2022-11-21T03:47:54.500Z,2.50
2022-11-21T03:50:22.783Z,2.54
2022-11-21T03:52:51.053Z,2.51
2022-11-21T03:55:19.334Z,2.49
2022-11-21T03:57:47.590Z,2.23
2022-11-21T04:00:17.816Z,2.25
2022-11-21T04:02:47.411Z,2.15
2022-11-21T04:05:15.887Z,2.20
2022-11-21T04:07:44.203Z,2.13
2022-11-21T04:10:12.575Z,2.17
2022-11-21T04:12:40.825Z,1.99
2022-11-21T04:15:13.624Z,2.14
2022-11-21T04:17:42.753Z,1.75
2022-11-21T04:20:13.230Z,2.11
2022-11-21T04:22:41.487Z,2.00
2022-11-21T04:25:09.959Z,2.10
2022-11-21T04:27:38.202Z,2.07
2022-11-21T04:30:08.177Z,2.05
2022-11-21T04:32:36.476Z,2.14
2022-11-21T04:35:05.421Z,2.15
2022-11-21T04:37:35.077Z,2.15
2022-11-21T04:40:03.398Z,2.15
2022-11-21T04:42:31.671Z,2.15
2022-11-21T04:44:59.892Z,2.17
2022-11-21T04:47:28.084Z,2.11
2022-11-21T04:49:56.686Z,1.91
2022-11-21T04:52:24.877Z,2.19
2022-11-21T04:54:54.425Z,2.19
2022-11-21T04:57:22.609Z,2.22
2022-11-21T04:59:50.957Z,2.25
2022-11-21T05:02:19.168Z,2.32
2022-11-21T05:04:57.449Z,2.26
2022-11-21T05:07:25.822Z,2.41
2022-11-21T05:09:55.493Z,2.49
2022-11-21T05:12:41.471Z,2.41
2022-11-21T05:15:10.834Z,2.42
2022-11-21T05:17:39.231Z,2.47
2022-11-21T05:20:09.496Z,2.35
2022-11-21T05:22:37.740Z,2.50
2022-11-21T05:25:08.400Z,2.60
2022-11-21T05:27:36.703Z,2.65
2022-11-21T05:30:05.844Z,2.65
2022-11-21T05:32:34.086Z,2.67
2022-11-21T05:35:04.849Z,2.71
2022-11-21T05:37:33.159Z,2.66
2022-11-21T05:40:01.436Z,2.77
2022-11-21T05:42:48.366Z,2.64
2022-11-21T05:45:16.888Z,2.74
2022-11-21T05:47:45.160Z,2.79
2022-11-21T05:50:13.434Z,2.77
2022-11-21T05:52:41.680Z,2.77
2022-11-21T05:55:10.510Z,2.91
2022-11-21T05:57:40.131Z,2.83
2022-11-21T06:00:10.417Z,2.88
2022-11-21T06:02:56.461Z,2.92
2022-11-21T06:05:24.800Z,2.81
2022-11-21T06:07:53.048Z,2.79
2022-11-21T06:10:21.323Z,2.84
2022-11-21T06:12:50.915Z,2.92
2022-11-21T06:15:19.177Z,2.92
2022-11-21T06:17:47.458Z,2.92
2022-11-21T06:20:16.451Z,2.77
2022-11-21T06:22:44.788Z,2.79
2022-11-21T06:25:13.045Z,2.74
2022-11-21T06:27:41.261Z,2.91
2022-11-21T06:30:12.267Z,2.91
2022-11-21T06:32:40.845Z,2.96
2022-11-21T06:35:09.790Z,2.87
2022-11-21T06:37:38.043Z,2.99
2022-11-21T06:40:07.868Z,3.20
2022-11-21T06:42:36.125Z,3.12
2022-11-21T06:45:05.172Z,3.12
2022-11-21T06:47:37.056Z,3.10
2022-11-21T06:50:05.819Z,3.20
2022-11-21T06:52:34.535Z,3.11
2022-11-21T06:55:02.903Z,3.18
2022-11-21T06:57:32.767Z,3.19
2022-11-21T07:00:01.006Z,3.13
2022-11-21T07:02:29.347Z,3.20
2022-11-21T07:05:35.580Z,3.19
2022-11-21T07:08:09.139Z,3.21
2022-11-21T07:10:57.341Z,3.28
2022-11-21T07:13:29.262Z,3.29
2022-11-21T07:16:03.572Z,3.30
2022-11-21T07:18:32.031Z,3.21
2022-11-21T07:21:02.978Z,3.24
2022-11-21T07:23:32.433Z,3.26
2022-11-21T07:26:01.885Z,3.19
2022-11-21T07:28:30.288Z,3.27
2022-11-21T07:30:58.835Z,3.26
2022-11-21T07:33:27.322Z,3.37
2022-11-21T07:35:57.550Z,3.38
2022-11-21T07:38:27.681Z,3.45
2022-11-21T07:40:58.157Z,3.30
2022-11-21T07:43:26.405Z,3.94
2022-11-21T07:45:54.644Z,3.36
2022-11-21T07:48:22.910Z,3.42
2022-11-21T07:50:51.212Z,3.18
2022-11-21T07:53:19.506Z,3.45
2022-11-21T07:55:49.109Z,3.56
2022-11-21T07:58:18.447Z,3.36
2022-11-21T08:00:46.676Z,3.46
2022-11-21T08:03:15.122Z,3.33
2022-11-21T08:05:45.581Z,3.06
2022-11-21T08:08:15.108Z,3.39
2022-11-21T08:10:48.186Z,3.47
2022-11-21T08:13:16.506Z,3.36
2022-11-21T08:15:44.855Z,3.41
2022-11-21T08:18:15.152Z,3.40
2022-11-21T08:20:43.787Z,3.36
2022-11-21T08:23:12.470Z,3.43
2022-11-21T08:25:42.773Z,3.57
2022-11-21T08:28:13.614Z,3.37
2022-11-21T08:30:42.098Z,3.57
2022-11-21T08:33:10.453Z,3.54
2022-11-21T08:35:39.681Z,3.58
2022-11-21T08:38:08.186Z,3.46
2022-11-21T08:40:37.305Z,3.40
2022-11-21T08:43:08.045Z,3.36
2022-11-21T08:45:39.295Z,3.37
2022-11-21T08:48:12.305Z,3.30
2022-11-21T08:50:40.988Z,3.25
2022-11-21T08:53:09.222Z,3.39
2022-11-21T08:55:37.459Z,3.30
2022-11-21T08:58:05.704Z,3.40
2022-11-21T09:00:33.952Z,3.43
2022-11-21T09:03:09.440Z,3.59
2022-11-21T09:05:38.197Z,3.67
2022-11-21T09:08:06.735Z,3.56
2022-11-21T09:10:35.036Z,3.65
2022-11-21T09:13:03.306Z,3.63
2022-11-21T09:15:49.253Z,3.73
2022-11-21T09:18:18.926Z,3.68
2022-11-21T09:20:47.244Z,3.80
2022-11-21T09:23:17.214Z,3.81
2022-11-21T09:25:47.051Z,4.01
2022-11-21T09:28:16.133Z,3.79
2022-11-21T09:30:45.330Z,3.88
2022-11-21T09:33:16.787Z,3.88
2022-11-21T09:35:46.426Z,3.94
2022-11-21T09:38:17.529Z,3.97
2022-11-21T09:40:50.374Z,3.86
2022-11-21T09:43:44.660Z,3.92
2022-11-21T09:46:16.641Z,3.90
2022-11-21T09:48:50.036Z,4.07
2022-11-21T09:51:21.786Z,4.03
2022-11-21T09:53:58.497Z,4.01
2022-11-21T09:56:31.443Z,4.05
2022-11-21T09:59:13.959Z,4.11
2022-11-21T10:01:42.257Z,4.13
2022-11-21T10:04:10.663Z,4.16
2022-11-21T10:06:50.664Z,4.16
2022-11-21T10:09:36.810Z,4.10
2022-11-21T10:12:35.355Z,4.15
2022-11-21T10:15:19.107Z,4.06
2022-11-21T10:18:05.108Z,4.08
2022-11-21T10:20:49.951Z,4.24
2022-11-21T10:23:59.394Z,4.08
2022-11-21T10:26:39.579Z,4.13
2022-11-21T10:29:19.080Z,4.19
2022-11-21T10:31:50.003Z,4.28
2022-11-21T10:34:23.760Z,4.24
2022-11-21T10:36:56.432Z,4.53
2022-11-21T10:39:36.195Z,4.45
2022-11-21T10:42:21.575Z,4.52
2022-11-21T10:45:10.608Z,4.54
2022-11-21T10:47:38.971Z,4.60
2022-11-21T10:50:41.498Z,4.42
2022-11-21T10:53:36.342Z,5.03
2022-11-21T10:56:10.584Z,5.09
2022-11-21T10:58:44.713Z,4.93
2022-11-21T11:01:27.322Z,4.93
2022-11-21T11:04:42.823Z,5.05
2022-11-21T11:07:24.485Z,4.99
2022-11-21T11:09:53.902Z,5.07
2022-11-21T11:12:50.867Z,5.02
2022-11-21T11:15:22.958Z,4.89
2022-11-21T11:17:54.293Z,4.87
2022-11-21T11:20:38.893Z,4.94
2022-11-21T11:23:28.410Z,4.91
2022-11-21T11:25:59.130Z,4.88
2022-11-21T11:28:37.414Z,4.95
2022-11-21T11:31:05.926Z,5.00
2022-11-21T11:33:37.119Z,4.95
2022-11-21T11:36:15.395Z,5.08
2022-11-21T11:38:49.543Z,5.03
2022-11-21T11:42:05.778Z,5.16
2022-11-21T11:45:04.617Z,5.37
2022-11-21T11:47:41.912Z,5.64
2022-11-21T11:50:17.422Z,5.70
2022-11-21T11:52:58.518Z,5.93
2022-11-21T11:55:36.232Z,6.10
2022-11-21T11:58:10.214Z,5.83
2022-11-21T12:00:47.063Z,5.92
2022-11-21T12:03:20.546Z,5.99
2022-11-21T12:06:01.633Z,6.25
2022-11-21T12:08:43.316Z,6.55
2022-11-21T12:11:48.319Z,6.51
2022-11-21T12:14:48.695Z,6.40
2022-11-21T12:17:26.675Z,6.57
2022-11-21T12:19:55.929Z,6.34
2022-11-21T12:22:24.303Z,6.13
2022-11-21T12:24:52.561Z,5.89
2022-11-21T12:27:29.588Z,6.05
2022-11-21T12:30:21.785Z,5.89
2022-11-21T12:33:16.196Z,5.91
2022-11-21T12:36:18.394Z,5.99
2022-11-21T12:39:20.215Z,6.05
2022-11-21T12:42:12.209Z,6.17
2022-11-21T12:44:59.087Z,6.11
2022-11-21T12:48:09.818Z,6.42
2022-11-21T12:51:06.367Z,6.63
2022-11-21T12:54:04.910Z,6.71
2022-11-21T12:56:47.896Z,6.66
2022-11-21T12:59:16.251Z,6.52
2022-11-21T13:01:55.721Z,6.71
2022-11-21T13:04:30.297Z,6.66
2022-11-21T13:07:04.449Z,6.63
2022-11-21T13:09:39.242Z,6.54
2022-11-21T13:12:14.926Z,6.51
2022-11-21T13:14:49.766Z,6.49
2022-11-21T13:17:30.649Z,6.29
2022-11-21T13:20:03.390Z,6.36
2022-11-21T13:22:54.427Z,6.20
2022-11-21T13:25:42.017Z,6.28
2022-11-21T13:28:37.617Z,6.26
2022-11-21T13:31:31.334Z,5.39
2022-11-21T13:34:00.459Z,5.74
2022-11-21T13:36:43.046Z,6.21
2022-11-21T13:39:38.185Z,6.33
2022-11-21T13:42:31.754Z,6.47
2022-11-21T13:45:36.034Z,6.50
2022-11-21T13:48:47.370Z,7.51
2022-11-21T13:51:48.777Z,8.28
2022-11-21T13:55:09.324Z,8.45
2022-11-21T13:58:04.851Z,8.34
2022-11-21T14:01:10.058Z,8.18
2022-11-21T14:04:31.966Z,7.58
2022-11-21T14:07:24.428Z,7.74
2022-11-21T14:09:55.015Z,7.47
2022-11-21T14:12:34.498Z,7.45
2022-11-21T14:15:23.898Z,7.27
2022-11-21T14:17:54.724Z,7.31
2022-11-21T14:20:27.301Z,7.22
2022-11-21T14:23:03.333Z,7.26
2022-11-21T14:25:42.831Z,7.44
2022-11-21T14:28:16.900Z,7.89
2022-11-21T14:30:45.919Z,8.07
2022-11-21T14:33:30.109Z,7.89
2022-11-21T14:36:03.339Z,7.82
2022-11-21T14:38:41.036Z,7.94
2022-11-21T14:41:30.520Z,7.89
2022-11-21T14:44:18.155Z,8.41
2022-11-21T14:46:47.797Z,8.21
2022-11-21T14:49:31.191Z,7.96
2022-11-21T14:52:18.566Z,7.66
2022-11-21T14:57:43.856Z,7.19
2022-11-21T15:00:51.159Z,7.09
2022-11-21T15:03:21.467Z,6.76
2022-11-21T15:06:08.165Z,6.78
2022-11-21T15:11:33.873Z,6.50
2022-11-21T15:14:16.739Z,6.30
2022-11-21T15:16:49.597Z,6.27
2022-11-21T15:19:23.066Z,6.07
2022-11-21T15:21:52.492Z,6.12
2022-11-21T15:24:32.359Z,5.87
2022-11-21T15:27:00.946Z,5.76
2022-11-21T15:29:31.928Z,5.64
2022-11-21T15:35:01.603Z,5.25
2022-11-21T15:37:29.845Z,5.26
2022-11-21T15:39:59.186Z,4.55
2022-11-21T15:42:45.518Z,5.05
2022-11-21T15:45:27.290Z,4.87
2022-11-21T15:47:56.923Z,4.92
2022-11-21T15:50:26.520Z,4.68
2022-11-21T15:52:54.992Z,4.64
2022-11-21T15:55:28.215Z,4.57
2022-11-21T15:57:13.410Z,5.27
2022-11-21T15:57:56.534Z,4.43
2022-11-21T16:00:24.923Z,4.25
2022-11-21T16:02:53.743Z,4.16
2022-11-21T16:05:23.535Z,4.19
2022-11-21T16:07:51.859Z,4.29
2022-11-21T16:10:27.261Z,4.14
2022-11-21T16:12:57.138Z,4.06
2022-11-21T16:15:25.757Z,4.00
2022-11-21T16:17:54.022Z,3.24
2022-11-21T16:20:23.665Z,3.95
2022-11-21T16:22:51.920Z,3.92
2022-11-21T16:25:20.188Z,3.82
2022-11-21T16:27:48.765Z,3.76
2022-11-21T16:30:17.322Z,3.69
2022-11-21T16:32:45.517Z,3.63
2022-11-21T16:35:13.814Z,3.48
2022-11-21T16:37:43.463Z,3.38
2022-11-21T16:40:12.542Z,3.40
2022-11-21T16:42:40.770Z,3.51
2022-11-21T16:45:10.990Z,3.40
2022-11-21T16:47:41.098Z,3.46
2022-11-21T16:50:12.594Z,3.32
2022-11-21T16:52:40.905Z,3.27
2022-11-21T16:55:10.953Z,3.28
2022-11-21T16:57:39.224Z,3.28
2022-11-21T17:00:11.940Z,3.30
2022-11-21T17:02:40.223Z,3.31
2022-11-21T17:05:09.419Z,3.23
2022-11-21T17:07:37.730Z,3.26
2022-11-21T17:10:06.990Z,3.16
2022-11-21T17:12:38.998Z,3.18
2022-11-21T17:15:10.146Z,3.14
2022-11-21T17:17:38.783Z,2.98
2022-11-21T17:20:09.668Z,2.97
2022-11-21T17:22:38.210Z,2.97
2022-11-21T17:25:07.717Z,2.93
2022-11-21T17:27:36.022Z,2.76
2022-11-21T17:30:07.336Z,2.73
2022-11-21T17:32:36.436Z,2.72
2022-11-21T17:35:05.501Z,2.85
2022-11-21T17:37:33.755Z,2.76
2022-11-21T17:40:01.951Z,2.82
2022-11-21T17:42:30.261Z,2.78
2022-11-21T17:44:58.502Z,2.79
2022-11-21T17:47:28.110Z,2.76
2022-11-21T17:49:58.973Z,2.80
2022-11-21T17:52:29.597Z,2.83
2022-11-21T17:54:57.856Z,2.78
2022-11-21T17:57:26.340Z,2.83
2022-11-21T17:59:54.585Z,2.87
2022-11-21T18:02:23.099Z,2.90
2022-11-21T18:04:52.827Z,2.99
2022-11-21T18:07:21.126Z,2.83
2022-11-21T18:09:50.028Z,2.76
2022-11-21T18:12:18.245Z,2.87
2022-11-21T18:14:46.446Z,2.90
2022-11-21T18:17:14.702Z,2.99
2022-11-21T18:19:43.284Z,3.00
2022-11-21T18:22:12.841Z,3.08
2022-11-21T18:24:41.055Z,2.96
2022-11-21T18:27:09.342Z,3.01
2022-11-21T18:29:37.600Z,3.04
2022-11-21T18:32:06.955Z,3.01
2022-11-21T18:34:35.161Z,3.09
2022-11-21T18:37:03.439Z,2.99
2022-11-21T18:39:33.433Z,3.05
2022-11-21T18:42:01.881Z,3.05
2022-11-21T18:44:30.150Z,3.12
2022-11-21T18:46:58.945Z,3.18
2022-11-21T18:49:27.644Z,3.08
2022-11-21T18:51:56.245Z,3.09
2022-11-21T18:54:24.503Z,3.05
2022-11-21T18:56:54.291Z,2.85
2022-11-21T18:59:22.652Z,2.89
2022-11-21T19:01:51.267Z,2.92
2022-11-21T19:04:19.870Z,2.94
2022-11-21T19:06:48.193Z,2.97
2022-11-21T19:09:16.435Z,2.96
2022-11-21T19:11:44.743Z,2.96
2022-11-21T19:14:14.455Z,3.03
2022-11-21T19:16:42.707Z,3.09
2022-11-21T19:22:01.716Z,3.24
2022-11-21T19:24:30.016Z,3.20
2022-11-21T19:26:58.520Z,3.38
2022-11-21T19:29:29.559Z,3.95
2022-11-21T19:31:58.154Z,3.32
2022-11-21T19:34:26.389Z,3.28
2022-11-21T19:36:54.647Z,3.31
2022-11-21T19:39:22.892Z,3.32
2022-11-21T19:41:51.218Z,3.31
2022-11-21T19:44:19.808Z,3.36
2022-11-21T19:46:49.587Z,3.32
2022-11-21T19:49:19.363Z,3.18
2022-11-21T19:51:47.807Z,3.32
2022-11-21T19:54:17.511Z,3.36
2022-11-21T19:56:46.515Z,3.44
2022-11-21T19:59:15.472Z,3.43
2022-11-21T20:01:47.007Z,3.57
2022-11-21T20:04:20.929Z,3.60
2022-11-21T20:06:49.199Z,3.39
2022-11-21T20:09:20.408Z,3.40
2022-11-21T20:11:51.406Z,3.38
2022-11-21T20:14:22.735Z,3.36
2022-11-21T20:16:53.959Z,3.37
2022-11-21T20:19:26.769Z,3.40
2022-11-21T20:21:55.462Z,3.27
2022-11-21T20:24:23.700Z,3.43
2022-11-21T20:26:51.979Z,3.39
2022-11-21T20:29:20.371Z,3.41
2022-11-21T20:31:48.922Z,3.36
2022-11-21T20:34:17.271Z,3.34
2022-11-21T20:36:47.539Z,3.34
2022-11-21T20:39:18.113Z,3.29
2022-11-21T20:41:48.118Z,3.32
2022-11-21T20:47:08.529Z,3.37
2022-11-21T20:49:36.843Z,3.47
2022-11-21T20:54:59.140Z,3.49
2022-11-21T20:57:27.603Z,4.03
2022-11-21T20:59:55.936Z,3.37
2022-11-21T21:02:24.235Z,3.41
2022-11-21T21:04:53.020Z,3.34
2022-11-21T21:07:22.831Z,3.41
2022-11-21T21:09:51.184Z,3.35
2022-11-21T21:12:19.452Z,3.28
2022-11-21T21:14:47.684Z,3.44
2022-11-21T21:17:15.959Z,3.43
2022-11-21T21:19:44.217Z,3.22
2022-11-21T21:22:13.083Z,3.23
2022-11-21T21:24:42.676Z,3.34
2022-11-21T21:27:11.172Z,3.32
2022-11-21T21:29:39.390Z,3.38
2022-11-21T21:32:08.618Z,3.19
2022-11-21T21:34:36.907Z,3.20
2022-11-21T21:37:05.599Z,3.13
2022-11-21T21:39:33.854Z,3.12
2022-11-21T21:42:03.495Z,3.10
2022-11-21T21:44:33.562Z,3.10
2022-11-21T21:47:02.187Z,3.07
2022-11-21T21:49:30.451Z,3.12
2022-11-21T21:51:58.735Z,3.02
2022-11-21T21:54:27.496Z,3.12
2022-11-21T21:56:56.024Z,3.16
2022-11-21T21:59:25.787Z,3.10
2022-11-21T22:01:54.032Z,3.24
2022-11-21T22:04:23.432Z,3.24
2022-11-21T22:06:53.174Z,3.34
2022-11-21T22:09:21.651Z,3.25
2022-11-21T22:11:49.876Z,3.35
2022-11-21T22:14:18.190Z,3.24
2022-11-21T22:16:47.813Z,3.35
2022-11-21T22:19:16.599Z,3.37
2022-11-21T22:21:45.388Z,3.37
2022-11-21T22:24:31.543Z,3.35
2022-11-21T22:27:00.200Z,2.65
2022-11-21T22:29:28.561Z,3.51
2022-11-21T22:31:58.193Z,3.38
2022-11-21T22:34:26.689Z,3.47
2022-11-21T22:36:55.482Z,3.37
2022-11-21T22:39:23.762Z,3.37
2022-11-21T22:41:55.655Z,3.03
2022-11-21T22:44:26.989Z,3.51
2022-11-21T22:46:55.420Z,3.40
2022-11-21T22:49:25.006Z,3.47
2022-11-21T22:51:53.309Z,3.46
2022-11-21T22:54:21.527Z,3.48
2022-11-21T22:56:49.781Z,3.63
2022-11-21T22:59:18.053Z,3.59
2022-11-21T23:01:46.375Z,3.66
2022-11-21T23:04:18.340Z,3.57
2022-11-21T23:06:48.013Z,3.57
2022-11-21T23:09:16.241Z,3.39
2022-11-21T23:11:44.483Z,3.61
2022-11-21T23:14:13.632Z,3.59
2022-11-21T23:16:41.873Z,3.42
2022-11-21T23:19:10.110Z,3.53
2022-11-21T23:21:38.385Z,3.49
2022-11-21T23:24:08.548Z,3.60
2022-11-21T23:26:36.988Z,3.55
2022-11-21T23:29:08.773Z,2.95
2022-11-21T23:31:37.349Z,3.61
2022-11-21T23:34:05.804Z,3.20
2022-11-21T23:36:34.093Z,3.46
2022-11-21T23:39:02.404Z,3.57
2022-11-21T23:41:31.998Z,3.44
2022-11-21T23:44:00.819Z,3.53
2022-11-21T23:46:29.783Z,3.48
2022-11-21T23:48:58.079Z,3.56
2022-11-21T23:51:26.442Z,3.56
2022-11-21T23:53:54.727Z,3.46
2022-11-21T23:56:22.992Z,3.49
2022-11-21T23:58:52.629Z,3.59
